Time;durP1;ratioP1;P1;durP2;ratioP2;P2;SDS_P1;SDS_P2;PMS_P1;PMS_P2;Temp;Humidity;BMP_temperature;BMP_pressure;BME280_temperature;BME280_humidity;BME280_pressure;Samples;Min_cycle;Max_cycle;Signal;HPM_P1;HPM_P2
2023/07/20 00:01:59;;;;;;;4.65;2.53;;;15.30;99.90;;;;;;5040043;28;20046;-70
2023/07/20 00:04:24;;;;;;;4.72;2.70;;;15.30;99.90;;;;;;5042629;28;20447;-70
2023/07/20 00:06:50;;;;;;;4.53;2.63;;;15.30;99.90;;;;;;5056719;28;20041;-71
2023/07/20 00:09:16;;;;;;;3.00;2.65;;;15.30;99.90;;;;;;5040142;28;20131;-71
2023/07/20 00:11:49;;;;;;;3.72;2.65;;;15.30;99.90;;;;;;5042131;28;20103;-70
2023/07/20 00:14:15;;;;;;;6.32;2.88;;;15.30;99.90;;;;;;5043499;28;20094;-70
2023/07/20 00:16:41;;;;;;;4.30;2.90;;;15.30;99.90;;;;;;5051019;28;20052;-71
2023/07/20 00:19:06;;;;;;;5.00;3.28;;;15.30;99.90;;;;;;5043703;28;20047;-70
2023/07/20 00:21:32;;;;;;;4.30;3.00;;;15.20;99.90;;;;;;5043653;28;20055;-71
2023/07/20 00:23:58;;;;;;;4.00;3.20;;;15.30;99.90;;;;;;5041171;28;20667;-72
2023/07/20 00:26:23;;;;;;;5.20;2.92;;;15.20;99.90;;;;;;5050938;28;20045;-71
2023/07/20 00:28:51;;;;;;;6.10;3.28;;;15.20;99.90;;;;;;5055067;28;20033;-71
2023/07/20 00:31:16;;;;;;;4.05;3.25;;;15.20;99.90;;;;;;5043456;28;20070;-69
2023/07/20 00:33:42;;;;;;;4.55;3.60;;;15.20;99.90;;;;;;5043210;28;20102;-71
2023/07/20 00:36:08;;;;;;;5.78;3.53;;;15.20;99.90;;;;;;5041613;28;20051;-71
2023/07/20 00:38:33;;;;;;;6.20;3.83;;;15.20;99.90;;;;;;5051527;28;20106;-76
2023/07/20 00:40:59;;;;;;;4.55;3.33;;;15.10;99.90;;;;;;5042908;28;20044;-70
2023/07/20 00:43:24;;;;;;;5.15;3.58;;;15.10;99.90;;;;;;5040287;28;20068;-70
2023/07/20 00:45:51;;;;;;;5.22;3.90;;;15.10;99.90;;;;;;5040137;28;20722;-72
2023/07/20 00:48:16;;;;;;;4.03;2.80;;;14.90;99.90;;;;;;5058530;28;20122;-72
2023/07/20 00:50:42;;;;;;;5.45;3.35;;;15.00;99.90;;;;;;5043025;28;20484;-70
2023/07/20 00:53:08;;;;;;;5.13;3.30;;;14.90;99.90;;;;;;5042927;28;20055;-72
2023/07/20 00:55:34;;;;;;;5.53;3.53;;;14.90;99.90;;;;;;5039692;28;20048;-70
2023/07/20 00:58:00;;;;;;;4.53;3.47;;;14.80;99.90;;;;;;5044389;28;20032;-70
2023/07/20 01:00:27;;;;;;;4.65;3.38;;;14.70;99.90;;;;;;5050443;28;20079;-69
2023/07/20 01:02:53;;;;;;;5.80;3.50;;;14.50;99.90;;;;;;5039735;28;20049;-71
2023/07/20 01:05:20;;;;;;;4.30;3.28;;;14.50;99.90;;;;;;5039420;28;20060;-69
2023/07/20 01:07:51;;;;;;;5.03;3.55;;;14.50;99.90;;;;;;5041875;28;20103;-72
2023/07/20 01:10:44;;;;;;;5.93;3.22;;;14.40;99.90;;;;;;5051471;28;20044;-71
2023/07/20 01:13:10;;;;;;;5.68;3.55;;;14.30;99.90;;;;;;5027360;28;20068;-70
2023/07/20 01:15:36;;;;;;;7.00;3.92;;;14.20;99.90;;;;;;5028218;28;20046;-71
2023/07/20 01:18:04;;;;;;;7.25;4.03;;;14.20;99.90;;;;;;5028239;28;20068;-72
2023/07/20 01:20:32;;;;;;;5.78;3.60;;;14.00;99.90;;;;;;5027692;28;20451;-70
2023/07/20 01:23:38;;;;;;;5.97;3.38;;;14.00;99.90;;;;;;5027818;28;20077;-71
2023/07/20 01:26:25;;;;;;;5.65;3.58;;;14.00;99.90;;;;;;5027823;28;20111;-71
2023/07/20 01:28:56;;;;;;;7.53;2.95;;;13.90;99.90;;;;;;5028085;28;20049;-70
2023/07/20 01:31:25;;;;;;;5.93;3.47;;;13.90;99.90;;;;;;5027894;28;20057;-70
2023/07/20 01:33:55;;;;;;;4.38;3.17;;;13.80;99.90;;;;;;5028133;28;20060;-70
2023/07/20 01:36:22;;;;;;;4.22;3.20;;;13.80;99.90;;;;;;5020380;28;20049;-69
2023/07/20 01:38:49;;;;;;;4.82;3.05;;;13.80;99.90;;;;;;5028290;28;20056;-72
2023/07/20 01:41:15;;;;;;;4.13;3.10;;;13.70;99.90;;;;;;5027568;28;20061;-71
2023/07/20 01:43:42;;;;;;;4.15;2.95;;;13.60;99.90;;;;;;5027504;28;20570;-70
2023/07/20 01:46:08;;;;;;;5.40;3.10;;;13.60;99.90;;;;;;5028003;28;20107;-74
2023/07/20 01:48:33;;;;;;;5.28;3.00;;;13.60;99.90;;;;;;5027888;28;20041;-69
2023/07/20 01:50:59;;;;;;;6.25;3.53;;;13.50;99.90;;;;;;5042133;28;20505;-71
2023/07/20 01:53:25;;;;;;;5.00;2.90;;;13.50;99.90;;;;;;5048865;28;20072;-70
2023/07/20 01:55:56;;;;;;;9.57;3.30;;;13.40;99.90;;;;;;5038757;28;20476;-72
2023/07/20 01:58:22;;;;;;;5.03;3.20;;;13.30;99.90;;;;;;5038707;28;20050;-71
2023/07/20 02:00:47;;;;;;;4.05;2.95;;;13.40;99.90;;;;;;5043131;28;20037;-70
2023/07/20 02:03:13;;;;;;;4.15;3.20;;;13.20;99.90;;;;;;5050787;28;20762;-69
2023/07/20 02:05:39;;;;;;;4.82;2.60;;;13.30;99.90;;;;;;5042769;28;20052;-69
2023/07/20 02:08:05;;;;;;;7.82;3.17;;;13.20;99.90;;;;;;5045800;28;20100;-68
2023/07/20 02:10:31;;;;;;;5.05;2.83;;;13.20;99.90;;;;;;5051983;28;20124;-70
2023/07/20 02:12:56;;;;;;;5.82;2.70;;;13.10;99.90;;;;;;5050674;28;20045;-70
2023/07/20 02:15:22;;;;;;;6.18;3.13;;;13.00;99.90;;;;;;5041267;28;20045;-70
2023/07/20 02:17:48;;;;;;;3.40;2.55;;;12.90;99.90;;;;;;5049666;28;20048;-69
2023/07/20 02:20:13;;;;;;;3.50;2.38;;;12.90;99.90;;;;;;5073233;28;20045;-70
2023/07/20 02:22:40;;;;;;;6.20;3.40;;;12.80;99.90;;;;;;5049215;28;20053;-71
2023/07/20 02:25:07;;;;;;;4.90;2.55;;;12.80;99.90;;;;;;5049014;28;20073;-71
2023/07/20 02:27:36;;;;;;;4.57;2.88;;;12.70;99.90;;;;;;5042525;28;20037;-70
2023/07/20 02:30:03;;;;;;;3.65;2.42;;;12.70;99.90;;;;;;5044148;28;20064;-70
2023/07/20 02:32:29;;;;;;;3.70;2.70;;;12.60;99.90;;;;;;5045449;28;20070;-70
2023/07/20 02:34:55;;;;;;;3.25;2.20;;;12.50;99.90;;;;;;5053593;28;20128;-73
2023/07/20 02:37:21;;;;;;;26.23;2.20;;;12.50;99.90;;;;;;5050251;28;20124;-69
2023/07/20 02:39:46;;;;;;;1.60;1.17;;;12.40;99.90;;;;;;5045565;28;20067;-71
2023/07/20 02:42:13;;;;;;;5.80;1.17;;;12.30;99.90;;;;;;5045865;28;20076;-71
2023/07/20 02:44:38;;;;;;;2.42;1.50;;;12.30;99.90;;;;;;5053050;28;20120;-71
2023/07/20 02:47:04;;;;;;;3.13;1.80;;;12.20;99.90;;;;;;5046866;28;20125;-70
2023/07/20 02:49:30;;;;;;;4.63;2.63;;;12.20;99.90;;;;;;5045250;28;20041;-70
2023/07/20 02:51:55;;;;;;;5.20;2.00;;;12.20;99.90;;;;;;5045160;28;20080;-70
2023/07/20 02:54:21;;;;;;;4.25;2.40;;;12.20;99.90;;;;;;5052636;28;20049;-71
2023/07/20 02:56:47;;;;;;;3.70;2.28;;;12.20;99.90;;;;;;5049033;28;20464;-70
2023/07/20 02:59:12;;;;;;;4.13;2.35;;;12.20;99.90;;;;;;5041581;28;20136;-70
2023/07/20 03:01:38;;;;;;;3.53;2.20;;;12.20;99.90;;;;;;5044292;28;20207;-72
2023/07/20 03:04:04;;;;;;;3.58;1.73;;;12.20;99.90;;;;;;5049559;28;20056;-71
2023/07/20 03:06:30;;;;;;;2.30;1.70;;;12.20;99.90;;;;;;5052762;28;20037;-70
2023/07/20 03:08:56;;;;;;;6.78;2.20;;;12.10;99.90;;;;;;5045340;28;20094;-70
2023/07/20 03:11:22;;;;;;;4.07;2.00;;;12.10;99.90;;;;;;5046017;28;20053;-70
2023/07/20 03:13:48;;;;;;;4.63;2.00;;;12.20;99.90;;;;;;5052702;28;20145;-70
2023/07/20 03:16:18;;;;;;;3.35;1.65;;;12.10;99.90;;;;;;5052532;28;20411;-72
2023/07/20 03:18:44;;;;;;;4.10;1.60;;;12.20;99.90;;;;;;5044361;28;20052;-73
2023/07/20 03:21:13;;;;;;;2.28;1.60;;;11.90;99.90;;;;;;5048929;28;20045;-70
2023/07/20 03:23:41;;;;;;;3.53;1.60;;;11.80;99.90;;;;;;5045005;28;20045;-73
2023/07/20 03:26:10;;;;;;;4.35;1.55;;;11.90;99.90;;;;;;5044416;28;20049;-72
2023/07/20 03:28:40;;;;;;;2.03;1.30;;;11.70;99.90;;;;;;5044341;28;20094;-70
2023/07/20 03:31:06;;;;;;;3.65;1.63;;;11.70;99.90;;;;;;5041733;28;20083;-70
2023/07/20 03:33:32;;;;;;;1.10;0.90;;;11.60;99.90;;;;;;5041572;28;20091;-70
2023/07/20 03:35:58;;;;;;;1.70;1.30;;;11.60;99.90;;;;;;5042708;28;20554;-72
2023/07/20 03:38:25;;;;;;;1.75;1.20;;;11.70;99.90;;;;;;5052569;28;20080;-73
2023/07/20 03:40:52;;;;;;;3.05;1.45;;;11.50;99.90;;;;;;5052386;28;20103;-71
2023/07/20 03:43:18;;;;;;;2.63;1.83;;;11.50;99.90;;;;;;5042837;28;20046;-70
2023/07/20 03:45:45;;;;;;;3.60;1.50;;;11.30;99.90;;;;;;5046630;28;20048;-71
2023/07/20 03:48:11;;;;;;;2.17;1.38;;;11.30;99.90;;;;;;5049871;28;20045;-72
2023/07/20 03:50:37;;;;;;;1.60;1.20;;;11.20;99.90;;;;;;5044196;28;20056;-73
2023/07/20 03:53:03;;;;;;;1.38;1.10;;;11.20;99.90;;;;;;5044083;28;20136;-71
2023/07/20 03:55:28;;;;;;;1.90;1.50;;;11.20;99.90;;;;;;5052170;28;20500;-70
2023/07/20 03:57:54;;;;;;;2.28;1.63;;;11.10;99.90;;;;;;5047805;28;20045;-71
2023/07/20 04:00:20;;;;;;;2.03;1.30;;;11.10;99.90;;;;;;5051932;28;20056;-71
2023/07/20 04:02:45;;;;;;;1.98;1.35;;;11.00;99.90;;;;;;5043620;28;20040;-70
2023/07/20 04:05:11;;;;;;;1.90;1.40;;;11.00;99.90;;;;;;5043844;28;20056;-72
2023/07/20 04:07:37;;;;;;;3.60;1.50;;;11.00;99.90;;;;;;5052018;28;20392;-68
2023/07/20 04:10:02;;;;;;;4.82;1.70;;;11.00;99.90;;;;;;5051961;28;20036;-70
2023/07/20 04:12:28;;;;;;;2.47;1.38;;;11.00;99.90;;;;;;5045115;28;20476;-71
2023/07/20 04:14:53;;;;;;;3.15;1.42;;;11.10;99.90;;;;;;5043282;28;20119;-69
2023/07/20 04:17:19;;;;;;;3.42;1.50;;;10.90;99.90;;;;;;5043333;28;20040;-70
2023/07/20 04:19:45;;;;;;;2.30;1.48;;;10.90;99.90;;;;;;5048618;28;20141;-70
2023/07/20 04:22:10;;;;;;;3.55;1.58;;;10.90;99.90;;;;;;5047570;28;20038;-71
2023/07/20 04:24:36;;;;;;;1.90;1.42;;;10.90;99.90;;;;;;5040250;28;20573;-70
2023/07/20 04:27:02;;;;;;;2.08;1.38;;;10.90;99.90;;;;;;5048464;28;20059;-71
2023/07/20 04:29:28;;;;;;;3.30;1.38;;;11.00;99.90;;;;;;5051426;28;20041;-71
2023/07/20 04:31:53;;;;;;;2.20;1.55;;;11.00;99.90;;;;;;5042954;28;20054;-69
2023/07/20 04:34:19;;;;;;;2.38;1.48;;;11.10;99.90;;;;;;5043443;28;20125;-69
2023/07/20 04:36:45;;;;;;;2.92;1.80;;;11.10;99.90;;;;;;5041867;28;20060;-69
2023/07/20 04:39:11;;;;;;;2.70;1.90;;;11.00;99.90;;;;;;5048020;28;20044;-70
2023/07/20 04:41:37;;;;;;;2.78;1.90;;;11.00;99.90;;;;;;5044995;28;20116;-69
2023/07/20 04:44:03;;;;;;;3.40;2.55;;;11.00;99.90;;;;;;5047633;28;20160;-69
2023/07/20 04:46:28;;;;;;;4.72;2.65;;;11.10;99.90;;;;;;5050131;28;20084;-69
2023/07/20 04:48:54;;;;;;;4.30;3.30;;;11.10;99.90;;;;;;5050914;28;20048;-69
2023/07/20 04:51:20;;;;;;;8.00;3.30;;;11.10;99.90;;;;;;5041208;28;20713;-69
2023/07/20 04:53:47;;;;;;;4.15;3.17;;;11.10;99.90;;;;;;5039724;28;20042;-69
2023/07/20 04:56:12;;;;;;;4.85;2.83;;;11.20;99.90;;;;;;5044799;28;20487;-70
2023/07/20 04:58:38;;;;;;;4.47;3.05;;;11.20;99.90;;;;;;5048326;28;20083;-71
2023/07/20 05:01:03;;;;;;;4.57;2.80;;;11.20;99.90;;;;;;5039551;28;20045;-76
2023/07/20 05:03:29;;;;;;;6.07;3.45;;;11.30;99.90;;;;;;5048554;28;20045;-69
2023/07/20 05:05:55;;;;;;;5.00;3.25;;;11.40;99.90;;;;;;5039768;28;20045;-70
2023/07/20 05:08:22;;;;;;;5.03;3.63;;;11.40;99.90;;;;;;5046983;28;20118;-70
2023/07/20 05:10:48;;;;;;;4.00;3.30;;;11.50;99.90;;;;;;5042648;28;20057;-71
2023/07/20 05:13:14;;;;;;;5.50;4.22;;;11.50;99.90;;;;;;5049473;28;20424;-77
2023/07/20 05:15:40;;;;;;;5.65;4.03;;;11.60;99.90;;;;;;5039947;28;20044;-70
2023/07/20 05:18:05;;;;;;;5.38;3.60;;;11.60;99.90;;;;;;5043047;28;20182;-70
2023/07/20 05:20:33;;;;;;;4.57;3.08;;;11.70;99.90;;;;;;5043123;28;20510;-70
2023/07/20 05:22:59;;;;;;;4.10;2.97;;;11.70;99.90;;;;;;5046964;28;20065;-75
2023/07/20 05:25:24;;;;;;;6.43;3.65;;;11.80;99.90;;;;;;5038975;28;20053;-71
2023/07/20 05:27:52;;;;;;;5.82;3.80;;;11.80;99.90;;;;;;5042050;28;20044;-70
2023/07/20 05:30:18;;;;;;;6.43;3.78;;;11.90;99.90;;;;;;5050936;28;20483;-70
2023/07/20 05:32:47;;;;;;;7.38;3.45;;;12.00;99.90;;;;;;5042786;28;20176;-70
2023/07/20 05:35:13;;;;;;;9.05;4.45;;;12.20;99.90;;;;;;5041682;28;20041;-68
2023/07/20 05:37:39;;;;;;;10.02;4.15;;;12.40;99.90;;;;;;5041862;28;20040;-70
2023/07/20 05:40:07;;;;;;;8.38;3.75;;;12.50;99.90;;;;;;5050189;28;20048;-71
2023/07/20 05:42:33;;;;;;;6.57;4.03;;;12.70;99.90;;;;;;5047549;28;20178;-70
2023/07/20 05:44:59;;;;;;;7.07;4.38;;;12.90;99.90;;;;;;5042249;28;20179;-70
2023/07/20 05:47:24;;;;;;;9.05;3.83;;;13.00;99.90;;;;;;5041718;28;20405;-70
2023/07/20 05:49:50;;;;;;;6.75;3.63;;;13.10;99.90;;;;;;5047691;28;20067;-70
2023/07/20 05:52:15;;;;;;;14.43;3.92;;;13.20;99.90;;;;;;5042015;28;20045;-72
2023/07/20 05:54:41;;;;;;;3.95;3.45;;;13.30;99.90;;;;;;5040377;28;20049;-69
2023/07/20 05:57:07;;;;;;;9.18;2.85;;;13.40;99.90;;;;;;5050333;28;20506;-70
2023/07/20 05:59:33;;;;;;;9.23;3.05;;;13.60;99.90;;;;;;5040796;28;20040;-68
2023/07/20 06:01:59;;;;;;;4.10;2.70;;;13.80;99.90;;;;;;5049982;28;20056;-69
2023/07/20 06:04:24;;;;;;;5.65;2.80;;;13.90;99.90;;;;;;5040827;28;20102;-70
2023/07/20 06:06:50;;;;;;;3.63;2.65;;;14.00;99.90;;;;;;5040747;28;20049;-69
2023/07/20 06:09:16;;;;;;;5.45;2.60;;;14.10;99.90;;;;;;5042737;28;20054;-68
2023/07/20 06:11:41;;;;;;;5.57;2.38;;;14.30;99.90;;;;;;5048677;28;20059;-70
2023/07/20 06:14:07;;;;;;;6.20;2.90;;;14.50;99.90;;;;;;5041679;28;20091;-70
2023/07/20 06:16:33;;;;;;;8.25;2.90;;;14.60;99.90;;;;;;5041680;28;20029;-70
2023/07/20 06:19:00;;;;;;;5.13;2.30;;;14.60;99.90;;;;;;5038214;28;20046;-71
2023/07/20 06:21:25;;;;;;;7.43;2.10;;;14.70;99.90;;;;;;5043408;28;20037;-70
2023/07/20 06:23:51;;;;;;;4.40;1.80;;;14.90;99.90;;;;;;5039992;28;20963;-69
2023/07/20 06:26:17;;;;;;;3.67;1.50;;;15.00;99.90;;;;;;5043271;28;20116;-71
2023/07/20 06:28:42;;;;;;;5.00;1.50;;;15.10;99.90;;;;;;5040662;28;20052;-74
2023/07/20 06:31:08;;;;;;;4.05;1.60;;;15.20;99.90;;;;;;5045548;28;20044;-69
2023/07/20 06:33:34;;;;;;;7.07;1.27;;;15.40;99.90;;;;;;5049401;28;20103;-69
2023/07/20 06:36:00;;;;;;;5.25;1.52;;;15.40;99.90;;;;;;5040851;28;20549;-67
2023/07/20 06:38:30;;;;;;;6.18;1.70;;;15.60;99.90;;;;;;5048202;28;20558;-67
2023/07/20 06:40:58;;;;;;;8.35;1.50;;;15.70;99.90;;;;;;5040383;28;20417;-67
2023/07/20 06:43:24;;;;;;;7.90;1.35;;;15.80;99.90;;;;;;5048317;28;20041;-70
2023/07/20 06:45:53;;;;;;;5.70;1.45;;;15.90;99.90;;;;;;5041664;28;20416;-70
2023/07/20 06:48:19;;;;;;;2.95;1.05;;;16.00;99.90;;;;;;5039029;28;20045;-70
2023/07/20 06:50:45;;;;;;;4.60;1.27;;;16.20;99.90;;;;;;5038282;28;20099;-72
2023/07/20 06:53:10;;;;;;;6.43;1.35;;;16.40;99.90;;;;;;5045988;28;20064;-71
2023/07/20 06:55:36;;;;;;;13.18;1.30;;;16.60;99.90;;;;;;5049623;28;20404;-71
2023/07/20 06:58:02;;;;;;;5.05;1.13;;;16.70;99.90;;;;;;5041027;28;20044;-70
2023/07/20 07:00:28;;;;;;;5.63;1.77;;;16.90;99.90;;;;;;5039807;28;20060;-71
2023/07/20 07:02:54;;;;;;;3.92;1.10;;;17.10;99.90;;;;;;5044633;28;20041;-73
2023/07/20 07:05:20;;;;;;;6.20;1.45;;;17.30;99.90;;;;;;5044395;28;20794;-67
2023/07/20 07:07:45;;;;;;;3.60;1.08;;;17.50;99.90;;;;;;5043752;28;20373;-70
2023/07/20 07:10:11;;;;;;;3.70;1.48;;;17.60;99.90;;;;;;5039122;28;20089;-69
2023/07/20 07:12:37;;;;;;;4.05;0.85;;;17.90;99.90;;;;;;5051100;28;20072;-69
2023/07/20 07:15:06;;;;;;;5.65;1.30;;;18.00;99.90;;;;;;5044939;28;20442;-69
2023/07/20 07:17:32;;;;;;;2.45;0.80;;;18.20;99.90;;;;;;5044888;28;20041;-69
2023/07/20 07:19:58;;;;;;;3.70;0.90;;;18.40;99.90;;;;;;5044534;28;20056;-68
2023/07/20 07:22:25;;;;;;;7.10;1.30;;;18.40;99.90;;;;;;5052891;28;20041;-68
2023/07/20 07:24:50;;;;;;;6.25;1.60;;;18.60;99.90;;;;;;5044297;28;20045;-69
2023/07/20 07:27:16;;;;;;;5.75;1.00;;;18.60;99.90;;;;;;5044585;28;20576;-70
2023/07/20 07:29:46;;;;;;;5.20;1.00;;;18.60;99.90;;;;;;5044334;28;20045;-69
2023/07/20 07:32:12;;;;;;;4.38;1.40;;;18.60;99.90;;;;;;5049489;28;20044;-67
2023/07/20 07:34:38;;;;;;;4.15;1.42;;;18.80;99.90;;;;;;5051237;28;20048;-69
2023/07/20 07:37:05;;;;;;;4.55;1.38;;;18.70;99.90;;;;;;5042509;28;20049;-69
2023/07/20 07:39:31;;;;;;;4.10;1.70;;;18.70;99.90;;;;;;5044901;28;20038;-69
2023/07/20 07:41:57;;;;;;;4.38;1.15;;;18.60;99.90;;;;;;5052779;28;20052;-69
2023/07/20 07:44:23;;;;;;;4.90;1.50;;;18.30;99.90;;;;;;5043981;28;20048;-68
2023/07/20 07:46:49;;;;;;;3.78;1.67;;;18.40;99.90;;;;;;5042886;28;20053;-68
2023/07/20 07:49:15;;;;;;;6.40;1.50;;;18.60;99.90;;;;;;5041301;28;20130;-68
2023/07/20 07:51:41;;;;;;;4.10;1.45;;;18.80;99.90;;;;;;5041085;28;20087;-69
2023/07/20 07:54:07;;;;;;;5.18;1.60;;;18.90;99.90;;;;;;5040893;28;20041;-69
2023/07/20 07:56:32;;;;;;;5.38;1.88;;;19.30;99.90;;;;;;5050502;28;20095;-70
2023/07/20 07:58:58;;;;;;;8.52;1.85;;;19.60;99.90;;;;;;5046289;28;20045;-69
2023/07/20 08:01:23;;;;;;;3.67;1.40;;;19.80;99.90;;;;;;5041697;28;20052;-69
2023/07/20 08:03:49;;;;;;;6.07;1.50;;;19.80;99.90;;;;;;5042320;28;20079;-71
2023/07/20 08:06:15;;;;;;;7.70;1.55;;;19.80;99.90;;;;;;5052168;28;20484;-69
2023/07/20 08:08:42;;;;;;;5.32;1.90;;;20.00;99.90;;;;;;5048541;28;20052;-72
2023/07/20 08:11:08;;;;;;;5.18;1.40;;;20.10;99.90;;;;;;5038989;28;20057;-71
2023/07/20 08:13:34;;;;;;;7.65;1.95;;;20.20;99.90;;;;;;5041558;28;20049;-69
2023/07/20 08:16:04;;;;;;;4.00;1.45;;;20.10;99.90;;;;;;5050944;28;20098;-72
2023/07/20 08:18:29;;;;;;;4.70;1.52;;;19.80;99.90;;;;;;5044463;28;20495;-70
2023/07/20 08:20:55;;;;;;;6.97;1.40;;;19.70;99.90;;;;;;5043224;28;20050;-67
2023/07/20 08:23:21;;;;;;;5.65;1.45;;;19.80;99.90;;;;;;5042923;28;20114;-70
2023/07/20 08:25:48;;;;;;;8.38;1.80;;;19.80;99.90;;;;;;5042940;28;20088;-68
2023/07/20 08:28:15;;;;;;;5.18;1.50;;;20.10;99.90;;;;;;5051933;28;20069;-67
2023/07/20 08:30:45;;;;;;;7.63;1.20;;;19.80;99.90;;;;;;5044573;28;20049;-68
2023/07/20 08:33:12;;;;;;;12.45;1.67;;;19.70;99.90;;;;;;5043262;28;20049;-67
2023/07/20 08:35:38;;;;;;;5.90;1.77;;;20.10;99.90;;;;;;5043880;28;20044;-67
2023/07/20 08:38:04;;;;;;;7.85;1.95;;;20.20;99.90;;;;;;5050758;28;20389;-67
2023/07/20 08:40:32;;;;;;;6.80;1.50;;;20.40;99.90;;;;;;5051418;28;20124;-67
2023/07/20 08:43:00;;;;;;;4.03;1.20;;;20.60;99.90;;;;;;5043215;28;20060;-71
2023/07/20 08:45:28;;;;;;;5.07;1.52;;;20.80;99.90;;;;;;5043600;28;20480;-69
2023/07/20 08:47:57;;;;;;;5.03;1.42;;;21.00;99.90;;;;;;5046171;28;20048;-70
2023/07/20 08:50:26;;;;;;;4.68;1.38;;;21.30;99.90;;;;;;5043481;28;20041;-72
2023/07/20 08:52:53;;;;;;;4.85;1.08;;;21.60;99.90;;;;;;5045051;28;20043;-72
2023/07/20 08:55:22;;;;;;;4.38;1.10;;;22.00;99.90;;;;;;5041146;28;20053;-71
2023/07/20 08:57:50;;;;;;;4.95;0.93;;;22.00;99.90;;;;;;5042728;28;20041;-68
2023/07/20 09:00:19;;;;;;;4.93;1.17;;;22.00;99.90;;;;;;5042905;28;20071;-72
2023/07/20 09:02:46;;;;;;;3.70;0.80;;;21.60;99.90;;;;;;5049193;28;20045;-69
2023/07/20 09:05:14;;;;;;;3.05;0.60;;;20.80;99.90;;;;;;5046638;28;20095;-69
2023/07/20 09:07:40;;;;;;;4.03;0.88;;;20.70;99.90;;;;;;5042861;28;20382;-70
2023/07/20 09:10:07;;;;;;;3.17;0.70;;;20.70;99.90;;;;;;5042469;28;20574;-72
2023/07/20 09:12:36;;;;;;;1.80;0.95;;;20.60;99.90;;;;;;5041991;28;20103;-71
2023/07/20 09:15:03;;;;;;;2.17;0.77;;;20.60;99.90;;;;;;5050955;28;20051;-69
2023/07/20 09:17:29;;;;;;;5.20;0.70;;;20.50;99.90;;;;;;5042893;28;20044;-76
2023/07/20 09:19:55;;;;;;;3.00;0.80;;;20.70;99.90;;;;;;5042111;28;20066;-71
2023/07/20 09:22:20;;;;;;;4.97;1.15;;;20.90;99.90;;;;;;5042673;28;20484;-70
2023/07/20 09:24:46;;;;;;;2.97;0.80;;;21.20;99.90;;;;;;5049339;28;20411;-71
2023/07/20 09:27:12;;;;;;;2.58;0.65;;;21.10;99.90;;;;;;5050558;28;20053;-68
2023/07/20 09:29:51;;;;;;;3.63;0.75;;;20.70;99.90;;;;;;5050434;28;20055;-69
2023/07/20 09:32:21;;;;;;;4.45;1.10;;;21.10;99.90;;;;;;5043346;28;20120;-68
2023/07/20 09:34:47;;;;;;;3.75;0.98;;;21.60;99.90;;;;;;5041113;28;20087;-69
2023/07/20 09:37:13;;;;;;;3.22;0.60;;;22.00;99.90;;;;;;5042513;28;20182;-69
2023/07/20 09:39:45;;;;;;;3.38;0.60;;;22.10;99.90;;;;;;5041095;28;20080;-69
2023/07/20 09:42:12;;;;;;;4.05;0.60;;;21.90;99.90;;;;;;5039959;28;20099;-70
2023/07/20 09:44:39;;;;;;;3.15;0.80;;;21.80;99.90;;;;;;5046430;28;20087;-70
2023/07/20 09:47:05;;;;;;;2.03;0.60;;;21.60;99.90;;;;;;5041677;28;20049;-70
2023/07/20 09:49:31;;;;;;;2.60;0.50;;;21.50;99.90;;;;;;5039305;28;20042;-70
2023/07/20 09:52:02;;;;;;;5.75;0.80;;;21.70;99.90;;;;;;5039013;28;20053;-69
2023/07/20 09:54:29;;;;;;;2.58;0.60;;;22.00;99.90;;;;;;5041469;28;20087;-70
2023/07/20 09:56:55;;;;;;;2.58;0.80;;;21.70;99.90;;;;;;5042089;28;20044;-70
2023/07/20 09:59:21;;;;;;;2.08;0.70;;;22.10;99.90;;;;;;5040261;28;20545;-69
2023/07/20 10:01:49;;;;;;;5.30;0.63;;;22.40;99.90;;;;;;5038721;28;20124;-70
2023/07/20 10:04:18;;;;;;;2.65;0.60;;;22.50;99.90;;;;;;5038703;28;20045;-70
2023/07/20 10:06:47;;;;;;;3.58;0.77;;;22.40;99.90;;;;;;5042166;28;20048;-70
2023/07/20 10:09:15;;;;;;;3.38;0.65;;;22.40;99.90;;;;;;5041788;28;20037;-69
2023/07/20 10:11:49;;;;;;;3.92;0.60;;;22.50;99.90;;;;;;5039773;28;20055;-68
2023/07/20 10:14:20;;;;;;;4.78;1.10;;;22.30;99.70;;;;;;5038100;28;20045;-71
2023/07/20 10:17:00;;;;;;;3.42;1.10;;;22.40;99.00;;;;;;5039539;28;20057;-69
2023/07/20 10:19:49;;;;;;;3.22;0.73;;;22.30;98.60;;;;;;5041780;28;20049;-71
2023/07/20 10:22:22;;;;;;;3.85;0.60;;;22.70;98.90;;;;;;5042912;28;20029;-71
2023/07/20 10:24:50;;;;;;;1.77;0.55;;;22.30;99.00;;;;;;5048673;28;20060;-73
2023/07/20 10:27:15;;;;;;;4.63;0.80;;;22.70;99.90;;;;;;5049662;28;20045;-71
2023/07/20 10:29:42;;;;;;;3.60;1.13;;;23.00;99.20;;;;;;5041172;28;20392;-70
2023/07/20 10:32:08;;;;;;;5.50;0.82;;;23.20;99.90;;;;;;5040825;28;20522;-70
2023/07/20 10:34:34;;;;;;;4.20;0.80;;;23.30;98.60;;;;;;5049896;28;20608;-74
2023/07/20 10:37:00;;;;;;;3.78;0.57;;;23.00;99.20;;;;;;5041500;28;20046;-70
2023/07/20 10:39:27;;;;;;;4.40;0.80;;;22.80;99.30;;;;;;5049474;28;20040;-69
2023/07/20 10:42:10;;;;;;;2.10;0.70;;;22.40;99.60;;;;;;5041759;28;20056;-70
2023/07/20 10:44:39;;;;;;;3.13;0.70;;;22.10;97.60;;;;;;5043261;28;20044;-70
2023/07/20 10:47:13;;;;;;;1.65;0.60;;;22.10;99.20;;;;;;5047826;28;20134;-70
2023/07/20 10:50:00;;;;;;;2.85;0.90;;;22.20;98.90;;;;;;5046964;28;20082;-70
2023/07/20 10:52:25;;;;;;;2.05;0.63;;;22.10;98.20;;;;;;5050016;28;20119;-73
2023/07/20 10:54:51;;;;;;;3.20;0.80;;;22.00;99.40;;;;;;5042366;28;20125;-71
2023/07/20 10:57:31;;;;;;;2.90;0.57;;;21.90;99.30;;;;;;5050945;28;20045;-70
2023/07/20 11:00:13;;;;;;;2.60;0.75;;;21.60;98.00;;;;;;5047250;28;20056;-69
2023/07/20 11:02:47;;;;;;;3.47;0.60;;;21.40;97.30;;;;;;5043868;28;20053;-75
2023/07/20 11:05:38;;;;;;;3.05;0.70;;;21.60;99.10;;;;;;5045423;28;20044;-70
2023/07/20 11:08:11;;;;;;;5.35;0.85;;;22.00;99.10;;;;;;5047015;28;20098;-68
2023/07/20 11:10:37;;;;;;;2.55;0.80;;;22.30;98.70;;;;;;5051887;28;20098;-69
2023/07/20 11:13:20;;;;;;;4.28;1.00;;;22.50;99.00;;;;;;5041624;28;20037;-70
2023/07/20 11:15:56;;;;;;;4.50;1.00;;;22.60;97.00;;;;;;5044584;28;20041;-69
2023/07/20 11:18:25;;;;;;;4.40;0.82;;;22.90;98.50;;;;;;5046080;28;20044;-69
2023/07/20 11:20:51;;;;;;;2.30;0.70;;;23.20;98.80;;;;;;5044998;28;20053;-69
2023/07/20 11:23:17;;;;;;;3.28;0.80;;;23.60;98.70;;;;;;5043422;28;20485;-68
2023/07/20 11:25:43;;;;;;;2.55;0.70;;;23.60;97.90;;;;;;5047426;28;20049;-69
2023/07/20 11:28:10;;;;;;;3.28;0.73;;;23.70;98.10;;;;;;5049426;28;20452;-69
2023/07/20 11:30:39;;;;;;;6.70;0.95;;;23.60;97.90;;;;;;5043035;28;20048;-68
2023/07/20 11:33:08;;;;;;;3.15;0.93;;;23.50;98.20;;;;;;5041432;28;20063;-68
2023/07/20 11:35:44;;;;;;;4.53;1.20;;;23.50;98.00;;;;;;5041262;28;20080;-69
2023/07/20 11:38:09;;;;;;;2.33;0.70;;;23.20;95.80;;;;;;5043738;28;20052;-70
2023/07/20 11:40:35;;;;;;;5.05;0.98;;;23.20;97.70;;;;;;5052145;28;20045;-68
2023/07/20 11:43:01;;;;;;;4.05;1.58;;;22.80;97.60;;;;;;5052187;28;20120;-68
2023/07/20 11:45:32;;;;;;;2.97;0.70;;;22.60;97.50;;;;;;5041882;28;20045;-68
2023/07/20 11:47:59;;;;;;;2.75;0.80;;;22.60;98.00;;;;;;5041173;28;20107;-69
2023/07/20 11:50:24;;;;;;;3.88;0.73;;;22.40;98.10;;;;;;5049215;28;20048;-68
2023/07/20 11:52:50;;;;;;;3.33;0.77;;;22.50;98.20;;;;;;5047203;28;20028;-68
2023/07/20 11:55:16;;;;;;;6.35;0.90;;;22.30;98.20;;;;;;5052297;28;20102;-68
2023/07/20 11:58:01;;;;;;;3.58;0.70;;;22.10;98.10;;;;;;5051202;28;20049;-69
2023/07/20 12:00:26;;;;;;;3.78;0.80;;;21.90;96.80;;;;;;5049732;28;20037;-69
2023/07/20 12:02:53;;;;;;;2.95;0.80;;;21.90;98.00;;;;;;5051939;28;20447;-68
2023/07/20 12:05:19;;;;;;;2.80;1.13;;;21.90;98.20;;;;;;5042396;28;20114;-68
2023/07/20 12:07:45;;;;;;;2.80;1.10;;;21.80;98.10;;;;;;5039505;28;20052;-68
2023/07/20 12:10:12;;;;;;;2.33;0.80;;;22.00;97.90;;;;;;5040824;28;20121;-68
2023/07/20 12:12:40;;;;;;;4.35;1.02;;;22.30;97.90;;;;;;5042424;28;20052;-68
2023/07/20 12:15:16;;;;;;;4.20;0.82;;;22.40;97.90;;;;;;5043989;28;20087;-68
2023/07/20 12:17:45;;;;;;;3.47;0.90;;;22.30;97.20;;;;;;5041542;28;20045;-68
2023/07/20 12:20:11;;;;;;;4.47;0.80;;;22.50;97.80;;;;;;5040278;28;20120;-68
2023/07/20 12:22:43;;;;;;;8.30;1.33;;;22.90;97.80;;;;;;5040750;28;20060;-68
2023/07/20 12:25:09;;;;;;;4.43;0.73;;;22.80;97.20;;;;;;5043351;28;20484;-68
2023/07/20 12:27:37;;;;;;;1.55;0.60;;;22.60;97.80;;;;;;5043490;28;20068;-68
2023/07/20 12:30:05;;;;;;;2.40;0.77;;;22.50;97.70;;;;;;5040471;28;20494;-67
2023/07/20 12:32:31;;;;;;;3.90;1.10;;;22.20;98.30;;;;;;5040370;28;20057;-67
2023/07/20 12:34:57;;;;;;;3.92;1.10;;;21.70;99.50;;;;;;5040001;28;20045;-68
2023/07/20 12:37:23;;;;;;;7.43;1.00;;;21.40;99.90;;;;;;5043374;28;20805;-69
2023/07/20 12:39:49;;;;;;;5.78;0.80;;;21.20;99.90;;;;;;5043349;28;20045;-67
2023/07/20 12:42:17;;;;;;;5.55;0.90;;;21.40;99.90;;;;;;5040265;28;20046;-68
2023/07/20 12:44:43;;;;;;;2.08;0.80;;;21.60;99.90;;;;;;5039912;28;20046;-69
2023/07/20 12:47:09;;;;;;;3.83;0.90;;;21.80;99.90;;;;;;5040170;28;20386;-68